Time;durP1;ratioP1;P1;durP2;ratioP2;P2;SDS_P1;SDS_P2;PMS_P1;PMS_P2;Temp;Humidity;BMP_temperature;BMP_pressure;BME280_temperature;BME280_humidity;BME280_pressure;Samples;Min_cycle;Max_cycle;Signal;HPM_P1;HPM_P2
2021/03/22 00:00:38;;;;;;;7.43;2.20;;;;;;;;;;5072983;28;20078;-58
2021/03/22 00:03:05;;;;;;;7.68;2.33;;;;;;;;;;5073133;28;20028;-58
2021/03/22 00:05:32;;;;;;;6.70;2.00;;;;;;;;;;5073045;28;20025;-58
2021/03/22 00:07:59;;;;;;;5.10;2.13;;;;;;;;;;5073009;28;20119;-58
2021/03/22 00:10:27;;;;;;;19.10;2.90;;;;;;;;;;5072932;28;20039;-58
2021/03/22 00:12:54;;;;;;;2.45;1.52;;;;;;;;;;5072547;28;20044;-58
2021/03/22 00:15:22;;;;;;;7.30;2.00;;;;;;;;;;5072920;28;20055;-58
2021/03/22 00:17:48;;;;;;;13.00;3.85;;;;;;;;;;5072954;28;20031;-58
2021/03/22 00:20:16;;;;;;;4.53;1.90;;;;;;;;;;5072810;28;20481;-58
2021/03/22 00:22:42;;;;;;;5.72;1.70;;;;;;;;;;5072702;28;20379;-58
2021/03/22 00:25:10;;;;;;;4.55;1.83;;;;;;;;;;5072753;28;20012;-58
2021/03/22 00:27:37;;;;;;;4.13;1.80;;;;;;;;;;5072772;28;20024;-59
2021/03/22 00:30:05;;;;;;;6.93;1.97;;;;;;;;;;5072625;28;20032;-58
2021/03/22 00:32:32;;;;;;;9.07;1.90;;;;;;;;;;5072482;28;20570;-58
2021/03/22 00:35:14;;;;;;;3.47;2.30;;;;;;;;;;5072806;28;20518;-58
2021/03/22 00:37:48;;;;;;;5.68;2.00;;;;;;;;;;5072790;28;20371;-58
2021/03/22 00:40:15;;;;;;;3.25;1.75;;;;;;;;;;5072628;28;20111;-58
2021/03/22 00:42:42;;;;;;;7.73;2.10;;;;;;;;;;5072767;28;20021;-58
2021/03/22 00:45:10;;;;;;;5.37;2.03;;;;;;;;;;5072538;28;20029;-58
2021/03/22 00:47:37;;;;;;;12.27;2.57;;;;;;;;;;5072667;28;20021;-58
2021/03/22 00:50:05;;;;;;;6.50;2.40;;;;;;;;;;5072461;28;20028;-58
2021/03/22 00:52:32;;;;;;;9.50;2.23;;;;;;;;;;5072356;28;20119;-58
2021/03/22 00:54:58;;;;;;;4.57;1.90;;;;;;;;;;5072426;28;20025;-58
2021/03/22 00:57:25;;;;;;;8.00;2.17;;;;;;;;;;5072412;28;20510;-58
2021/03/22 00:59:52;;;;;;;6.93;2.53;;;;;;;;;;5072391;28;20097;-58
2021/03/22 01:02:19;;;;;;;5.50;2.00;;;;;;;;;;5072500;28;20017;-58
2021/03/22 01:04:45;;;;;;;6.50;2.17;;;;;;;;;;5072397;28;20024;-58
2021/03/22 01:07:12;;;;;;;11.77;2.90;;;;;;;;;;5072421;28;20025;-58
2021/03/22 01:09:39;;;;;;;8.77;2.23;;;;;;;;;;5072349;28;20029;-58
2021/03/22 01:12:06;;;;;;;9.20;2.40;;;;;;;;;;5072210;28;20487;-58
2021/03/22 01:14:33;;;;;;;5.53;1.93;;;;;;;;;;5072212;28;20029;-58
2021/03/22 01:17:00;;;;;;;18.90;3.37;;;;;;;;;;5072261;28;20024;-58
2021/03/22 01:19:27;;;;;;;8.03;1.93;;;;;;;;;;5072654;28;20052;-58
2021/03/22 01:21:59;;;;;;;8.47;2.70;;;;;;;;;;5072169;28;20035;-58
2021/03/22 01:24:27;;;;;;;10.93;3.17;;;;;;;;;;5072403;28;20025;-58
2021/03/22 01:26:55;;;;;;;11.47;2.80;;;;;;;;;;5076017;28;20474;-58
2021/03/22 01:29:27;;;;;;;13.40;2.67;;;;;;;;;;5075871;28;20116;-58
2021/03/22 01:31:57;;;;;;;11.03;2.90;;;;;;;;;;5075697;28;20483;-57
2021/03/22 01:34:24;;;;;;;8.40;2.37;;;;;;;;;;5075748;28;20028;-58
2021/03/22 01:36:57;;;;;;;8.47;2.73;;;;;;;;;;5076547;28;20079;-58
2021/03/22 01:39:28;;;;;;;8.70;3.40;;;;;;;;;;5075647;28;20028;-57
2021/03/22 01:41:55;;;;;;;7.43;3.07;;;;;;;;;;5075631;28;20094;-58
2021/03/22 01:44:31;;;;;;;9.17;3.37;;;;;;;;;;5075536;28;20028;-57
2021/03/22 01:47:00;;;;;;;16.37;2.67;;;;;;;;;;5075544;28;20074;-57
2021/03/22 01:49:29;;;;;;;4.57;2.63;;;;;;;;;;5075548;28;20024;-57
2021/03/22 01:51:56;;;;;;;14.70;3.07;;;;;;;;;;5075408;28;20052;-58
2021/03/22 01:54:23;;;;;;;14.87;3.03;;;;;;;;;;5075342;28;20108;-57
2021/03/22 01:56:56;;;;;;;8.97;3.13;;;;;;;;;;5075322;28;20417;-57
2021/03/22 01:59:26;;;;;;;5.87;2.10;;;;;;;;;;5075359;28;20024;-57
2021/03/22 02:01:55;;;;;;;14.67;2.67;;;;;;;;;;5075205;28;20029;-57
2021/03/22 02:04:21;;;;;;;9.60;2.67;;;;;;;;;;5075208;28;20033;-57
2021/03/22 02:06:49;;;;;;;14.13;2.97;;;;;;;;;;5075221;28;20028;-57
2021/03/22 02:09:16;;;;;;;4.70;2.47;;;;;;;;;;5075137;28;20025;-57
2021/03/22 02:11:43;;;;;;;6.60;2.70;;;;;;;;;;5074947;28;20089;-57
2021/03/22 02:14:10;;;;;;;5.50;2.40;;;;;;;;;;5075158;28;20025;-57
2021/03/22 02:16:57;;;;;;;5.63;2.40;;;;;;;;;;5075157;28;20098;-57
2021/03/22 02:19:27;;;;;;;4.13;2.53;;;;;;;;;;5061344;28;20068;-57
2021/03/22 02:22:12;;;;;;;6.63;3.10;;;;;;;;;;5074829;28;20032;-57
2021/03/22 02:24:38;;;;;;;6.95;2.88;;;;;;;;;;5074968;28;20033;-57
2021/03/22 02:27:08;;;;;;;7.47;2.97;;;;;;;;;;5074783;28;20087;-57
2021/03/22 02:29:55;;;;;;;6.40;2.93;;;;;;;;;;5074749;28;20025;-57
2021/03/22 02:32:30;;;;;;;11.50;3.50;;;;;;;;;;5033920;28;20040;-57
2021/03/22 02:34:59;;;;;;;12.17;3.60;;;;;;;;;;5074868;28;20052;-57
2021/03/22 02:37:33;;;;;;;10.07;3.17;;;;;;;;;;5074153;28;20070;-57
2021/03/22 02:39:59;;;;;;;6.43;2.47;;;;;;;;;;5074453;28;20029;-57
2021/03/22 02:42:28;;;;;;;5.90;2.50;;;;;;;;;;5074562;28;20017;-57
2021/03/22 02:44:55;;;;;;;9.87;3.73;;;;;;;;;;5074352;28;20095;-57
2021/03/22 02:47:23;;;;;;;7.70;2.97;;;;;;;;;;5074494;28;20020;-57
2021/03/22 02:49:50;;;;;;;7.97;3.03;;;;;;;;;;5074249;28;20024;-57
2021/03/22 02:52:36;;;;;;;5.07;2.70;;;;;;;;;;5074224;28;20460;-57
2021/03/22 02:55:02;;;;;;;5.67;3.17;;;;;;;;;;5074301;28;20020;-57
2021/03/22 02:57:29;;;;;;;10.17;3.10;;;;;;;;;;5074192;28;20067;-57
2021/03/22 02:59:59;;;;;;;7.10;3.10;;;;;;;;;;5074088;28;20490;-57
2021/03/22 03:02:29;;;;;;;5.20;2.70;;;;;;;;;;5074107;28;20031;-57
2021/03/22 03:04:56;;;;;;;8.13;3.13;;;;;;;;;;5074050;28;20025;-57
2021/03/22 03:07:27;;;;;;;6.47;2.80;;;;;;;;;;5073980;28;20024;-57
2021/03/22 03:09:54;;;;;;;7.67;2.60;;;;;;;;;;5073953;28;20016;-57
2021/03/22 03:12:22;;;;;;;5.83;2.80;;;;;;;;;;5073701;28;20562;-57
2021/03/22 03:14:51;;;;;;;11.60;2.90;;;;;;;;;;5073861;28;20028;-57
2021/03/22 03:17:18;;;;;;;8.70;3.30;;;;;;;;;;5073773;28;20067;-57
2021/03/22 03:19:45;;;;;;;8.37;3.70;;;;;;;;;;5073627;28;20383;-57
2021/03/22 03:22:12;;;;;;;11.40;2.90;;;;;;;;;;5073734;28;20023;-57
2021/03/22 03:24:40;;;;;;;12.33;4.23;;;;;;;;;;5073634;28;20499;-57
2021/03/22 03:27:07;;;;;;;7.40;3.20;;;;;;;;;;5073707;28;20032;-57
2021/03/22 03:29:34;;;;;;;10.43;3.43;;;;;;;;;;5073529;28;20082;-57
2021/03/22 03:32:01;;;;;;;8.07;3.30;;;;;;;;;;5073305;28;20036;-57
2021/03/22 03:34:28;;;;;;;9.30;3.70;;;;;;;;;;5073496;28;20099;-57
2021/03/22 03:36:55;;;;;;;10.20;3.67;;;;;;;;;;5073720;28;20102;-57
2021/03/22 03:39:21;;;;;;;9.03;3.90;;;;;;;;;;5073509;28;20024;-57
2021/03/22 03:41:48;;;;;;;9.90;3.97;;;;;;;;;;5055321;28;20028;-57
2021/03/22 03:44:15;;;;;;;14.50;3.83;;;;;;;;;;5073285;28;20020;-57
2021/03/22 03:46:42;;;;;;;9.20;4.13;;;;;;;;;;5073291;28;20020;-57
2021/03/22 03:49:09;;;;;;;12.30;3.80;;;;;;;;;;5072545;28;20158;-57
2021/03/22 03:51:37;;;;;;;6.27;2.60;;;;;;;;;;5073091;28;20024;-57
2021/03/22 03:54:05;;;;;;;9.20;3.13;;;;;;;;;;5073102;28;20048;-57
2021/03/22 03:56:31;;;;;;;7.77;2.97;;;;;;;;;;5073150;28;20378;-57
2021/03/22 03:58:58;;;;;;;5.37;2.87;;;;;;;;;;5073129;28;20032;-57
2021/03/22 04:01:27;;;;;;;7.07;2.57;;;;;;;;;;5072988;28;20043;-57
2021/03/22 04:03:54;;;;;;;5.13;2.50;;;;;;;;;;5073109;28;20025;-57
2021/03/22 04:06:25;;;;;;;8.00;2.60;;;;;;;;;;5072923;28;20028;-57
2021/03/22 04:08:53;;;;;;;6.50;2.60;;;;;;;;;;5072959;28;20023;-57
2021/03/22 04:11:24;;;;;;;5.63;2.43;;;;;;;;;;5073002;28;20107;-57
2021/03/22 04:13:52;;;;;;;4.40;2.73;;;;;;;;;;5073152;28;20036;-57
2021/03/22 04:16:20;;;;;;;9.80;2.50;;;;;;;;;;5072920;28;20028;-57
2021/03/22 04:18:47;;;;;;;7.33;3.17;;;;;;;;;;5054960;28;20502;-57
2021/03/22 04:21:16;;;;;;;10.60;3.40;;;;;;;;;;5072845;28;20031;-57
2021/03/22 04:23:44;;;;;;;5.37;2.70;;;;;;;;;;5072876;28;20029;-57
2021/03/22 04:26:11;;;;;;;6.63;2.60;;;;;;;;;;5072829;28;20025;-57
2021/03/22 04:28:38;;;;;;;6.27;2.30;;;;;;;;;;5072896;28;20028;-57
2021/03/22 04:31:05;;;;;;;8.97;2.37;;;;;;;;;;5072765;28;20090;-57
2021/03/22 04:33:33;;;;;;;8.10;2.97;;;;;;;;;;5072755;28;20068;-57
2021/03/22 04:36:00;;;;;;;5.90;2.47;;;;;;;;;;5072944;28;20110;-57
2021/03/22 04:38:28;;;;;;;5.03;2.40;;;;;;;;;;5072804;28;20035;-57
2021/03/22 04:40:55;;;;;;;10.47;2.80;;;;;;;;;;5072662;28;20034;-57
2021/03/22 04:43:22;;;;;;;6.50;2.57;;;;;;;;;;5072709;28;20013;-57
2021/03/22 04:45:48;;;;;;;6.50;2.53;;;;;;;;;;5072565;28;20073;-57
2021/03/22 04:48:16;;;;;;;8.83;2.60;;;;;;;;;;5072684;28;20024;-56
2021/03/22 04:50:43;;;;;;;9.50;2.57;;;;;;;;;;5072490;28;20032;-57
2021/03/22 04:53:10;;;;;;;5.80;2.17;;;;;;;;;;5072342;28;20032;-57
2021/03/22 04:55:37;;;;;;;7.20;2.60;;;;;;;;;;5072590;28;20066;-57
2021/03/22 04:58:04;;;;;;;7.93;2.30;;;;;;;;;;5072381;28;20035;-57
2021/03/22 05:00:40;;;;;;;7.97;2.60;;;;;;;;;;5076130;28;20036;-57
2021/03/22 05:03:08;;;;;;;5.83;2.40;;;;;;;;;;5076375;28;20067;-57
2021/03/22 05:05:35;;;;;;;6.00;2.30;;;;;;;;;;5076495;28;20024;-57
2021/03/22 05:08:02;;;;;;;5.50;2.57;;;;;;;;;;5076259;28;20025;-57
2021/03/22 05:10:31;;;;;;;9.57;2.40;;;;;;;;;;5076154;28;20032;-57
2021/03/22 05:12:58;;;;;;;3.70;1.80;;;;;;;;;;5076116;28;20040;-57
2021/03/22 05:15:25;;;;;;;8.03;2.27;;;;;;;;;;5076272;28;20052;-57
2021/03/22 05:17:52;;;;;;;5.67;2.37;;;;;;;;;;5076205;28;20035;-57
2021/03/22 05:20:48;;;;;;;5.03;2.00;;;;;;;;;;5076091;28;20108;-56
2021/03/22 05:23:18;;;;;;;7.27;2.80;;;;;;;;;;5059199;28;20043;-56
2021/03/22 05:25:45;;;;;;;3.77;2.03;;;;;;;;;;5075970;28;20486;-56
2021/03/22 05:28:13;;;;;;;5.13;2.13;;;;;;;;;;5076155;28;20040;-56
2021/03/22 05:30:40;;;;;;;7.77;1.97;;;;;;;;;;5075808;28;20024;-56
2021/03/22 05:33:09;;;;;;;11.73;2.63;;;;;;;;;;5075821;28;20033;-56
2021/03/22 05:35:36;;;;;;;12.17;3.60;;;;;;;;;;5075837;28;20115;-56
2021/03/22 05:38:03;;;;;;;5.70;2.70;;;;;;;;;;5075716;28;20033;-56
2021/03/22 05:40:44;;;;;;;5.63;2.50;;;;;;;;;;5075611;28;20028;-56
2021/03/22 05:43:18;;;;;;;13.67;2.73;;;;;;;;;;5075583;28;20022;-56
2021/03/22 05:46:03;;;;;;;5.07;2.30;;;;;;;;;;5075602;28;20024;-56
2021/03/22 05:48:48;;;;;;;7.03;2.80;;;;;;;;;;5075541;28;20078;-55
2021/03/22 05:51:33;;;;;;;6.40;2.50;;;;;;;;;;5075509;28;20056;-56
2021/03/22 05:53:59;;;;;;;6.32;2.25;;;;;;;;;;5075444;28;20044;-55
2021/03/22 05:56:33;;;;;;;5.30;2.10;;;;;;;;;;5075456;28;20402;-56
2021/03/22 05:59:18;;;;;;;14.03;5.13;;;;;;;;;;5075389;28;20104;-55
2021/03/22 06:01:47;;;;;;;11.80;4.72;;;;;;;;;;5075365;28;20074;-55
2021/03/22 06:04:46;;;;;;;6.33;3.27;;;;;;;;;;5075194;28;20024;-55
2021/03/22 06:07:22;;;;;;;8.30;3.20;;;;;;;;;;5031150;28;20032;-55
2021/03/22 06:10:10;;;;;;;13.30;3.97;;;;;;;;;;5075256;28;20033;-56
2021/03/22 06:12:47;;;;;;;10.10;3.30;;;;;;;;;;5074964;28;20099;-56
2021/03/22 06:15:32;;;;;;;6.53;3.20;;;;;;;;;;5075113;28;20031;-56
2021/03/22 06:17:59;;;;;;;10.18;3.50;;;;;;;;;;5075068;28;20033;-56
2021/03/22 06:20:37;;;;;;;16.93;3.70;;;;;;;;;;5074878;28;20386;-55
2021/03/22 06:23:05;;;;;;;7.00;2.93;;;;;;;;;;5075014;28;20047;-55
2021/03/22 06:25:33;;;;;;;8.27;3.40;;;;;;;;;;5074867;28;20379;-56
2021/03/22 06:28:06;;;;;;;4.67;2.50;;;;;;;;;;5074941;28;20043;-56
2021/03/22 06:30:33;;;;;;;7.30;2.73;;;;;;;;;;5074695;28;20026;-55
2021/03/22 06:33:01;;;;;;;7.30;3.13;;;;;;;;;;5074785;28;20028;-55
2021/03/22 06:35:33;;;;;;;5.30;2.93;;;;;;;;;;5074691;28;20040;-56
2021/03/22 06:37:59;;;;;;;7.83;2.53;;;;;;;;;;5074598;28;20056;-55
2021/03/22 06:40:26;;;;;;;6.33;3.00;;;;;;;;;;5074850;28;20028;-56
2021/03/22 06:43:04;;;;;;;7.10;2.80;;;;;;;;;;5074482;28;20027;-55
2021/03/22 06:45:36;;;;;;;12.57;3.27;;;;;;;;;;5074452;28;20021;-55
2021/03/22 06:48:15;;;;;;;7.73;2.83;;;;;;;;;;5074516;28;20100;-55
2021/03/22 06:50:42;;;;;;;5.33;3.03;;;;;;;;;;5074443;28;20066;-56
2021/03/22 06:53:09;;;;;;;4.80;2.30;;;;;;;;;;5074197;28;20041;-56
2021/03/22 06:55:38;;;;;;;6.67;2.13;;;;;;;;;;5074340;28;20078;-55
2021/03/22 06:58:05;;;;;;;4.83;2.20;;;;;;;;;;5074312;28;20021;-56
2021/03/22 07:00:33;;;;;;;8.83;2.57;;;;;;;;;;5074165;28;20395;-55
2021/03/22 07:03:03;;;;;;;4.57;2.30;;;;;;;;;;5074105;28;20070;-56
2021/03/22 07:05:33;;;;;;;6.83;2.57;;;;;;;;;;5074109;28;20059;-55
2021/03/22 07:08:10;;;;;;;6.83;2.47;;;;;;;;;;5074274;28;20036;-55
2021/03/22 07:11:03;;;;;;;5.33;2.30;;;;;;;;;;5073938;28;20058;-56
2021/03/22 07:13:31;;;;;;;5.83;2.50;;;;;;;;;;5043271;28;20080;-55
2021/03/22 07:16:14;;;;;;;4.27;2.20;;;;;;;;;;5073889;28;20034;-55
2021/03/22 07:18:41;;;;;;;6.57;2.90;;;;;;;;;;5073857;28;20358;-55
2021/03/22 07:21:13;;;;;;;6.47;2.30;;;;;;;;;;5073833;28;20025;-55
2021/03/22 07:23:46;;;;;;;7.03;2.20;;;;;;;;;;5072788;28;20025;-55
2021/03/22 07:26:22;;;;;;;8.37;2.77;;;;;;;;;;5073668;28;20024;-56
2021/03/22 07:28:52;;;;;;;6.00;2.50;;;;;;;;;;5073610;28;20379;-55
2021/03/22 07:31:30;;;;;;;5.33;2.33;;;;;;;;;;5073414;28;20081;-55
2021/03/22 07:34:15;;;;;;;11.13;2.80;;;;;;;;;;5073423;28;20077;-55
2021/03/22 07:36:57;;;;;;;12.13;3.55;;;;;;;;;;5073733;28;20048;-56
2021/03/22 07:39:35;;;;;;;5.17;2.30;;;;;;;;;;5073371;28;20032;-55
2021/03/22 07:42:10;;;;;;;5.43;2.30;;;;;;;;;;5073320;28;20017;-55
2021/03/22 07:44:55;;;;;;;7.72;2.58;;;;;;;;;;5073294;28;20020;-55
2021/03/22 07:47:40;;;;;;;5.40;2.65;;;;;;;;;;5073190;28;20032;-55
2021/03/22 07:50:19;;;;;;;10.25;2.53;;;;;;;;;;5073228;28;20038;-55
2021/03/22 07:52:56;;;;;;;7.83;3.00;;;;;;;;;;5073299;28;20029;-55
2021/03/22 07:55:37;;;;;;;9.50;3.33;;;;;;;;;;5073120;28;20052;-55
2021/03/22 07:58:27;;;;;;;4.67;2.30;;;;;;;;;;5073134;28;20024;-55
2021/03/22 08:01:08;;;;;;;5.47;2.70;;;;;;;;;;5035865;28;20501;-55
2021/03/22 08:03:38;;;;;;;5.57;2.47;;;;;;;;;;5073111;28;20024;-55
2021/03/22 08:06:10;;;;;;;4.40;2.03;;;;;;;;;;5073065;28;20060;-55
2021/03/22 08:08:42;;;;;;;6.70;2.57;;;;;;;;;;5073155;28;20028;-55
2021/03/22 08:11:27;;;;;;;4.93;1.97;;;;;;;;;;5073047;28;20095;-55
2021/03/22 08:13:54;;;;;;;6.47;2.60;;;;;;;;;;5072859;28;20390;-55
2021/03/22 08:16:27;;;;;;;5.03;2.13;;;;;;;;;;5072960;28;20021;-55
2021/03/22 08:18:55;;;;;;;5.20;2.67;;;;;;;;;;5072840;28;20443;-55
2021/03/22 08:21:31;;;;;;;7.70;2.67;;;;;;;;;;5072772;28;20053;-55
2021/03/22 08:24:00;;;;;;;5.40;2.40;;;;;;;;;;5072774;28;20070;-55
2021/03/22 08:26:31;;;;;;;3.97;2.30;;;;;;;;;;5072840;28;20032;-55
2021/03/22 08:29:01;;;;;;;7.87;3.33;;;;;;;;;;5072872;28;20724;-55
2021/03/22 08:31:41;;;;;;;7.80;2.83;;;;;;;;;;5072744;28;20032;-55
2021/03/22 08:34:20;;;;;;;4.63;1.80;;;;;;;;;;5072514;28;20269;-55
2021/03/22 08:37:08;;;;;;;6.93;2.37;;;;;;;;;;5072852;28;20464;-55
2021/03/22 08:39:39;;;;;;;8.30;2.37;;;;;;;;;;5072626;28;20340;-55
2021/03/22 08:42:21;;;;;;;6.83;2.30;;;;;;;;;;5072706;28;20600;-55
2021/03/22 08:44:53;;;;;;;5.13;2.30;;;;;;;;;;5072771;28;20265;-55
2021/03/22 08:47:38;;;;;;;8.03;2.50;;;;;;;;;;5072585;28;20257;-55
2021/03/22 08:50:11;;;;;;;4.22;2.35;;;;;;;;;;5072479;28;20273;-56
2021/03/22 08:53:01;;;;;;;7.60;2.53;;;;;;;;;;5072415;28;20071;-56
2021/03/22 08:55:30;;;;;;;7.33;2.53;;;;;;;;;;5062267;28;20261;-57
2021/03/22 08:58:07;;;;;;;8.13;2.40;;;;;;;;;;5072613;28;20621;-56
2021/03/22 09:00:42;;;;;;;5.17;2.27;;;;;;;;;;5072520;28;20290;-57
2021/03/22 09:03:15;;;;;;;4.30;1.90;;;;;;;;;;5072493;28;20344;-56
2021/03/22 09:06:05;;;;;;;5.67;2.27;;;;;;;;;;5072446;28;20090;-56
2021/03/22 09:08:33;;;;;;;4.27;1.80;;;;;;;;;;5062196;28;20293;-57
2021/03/22 09:11:18;;;;;;;5.00;2.53;;;;;;;;;;5072318;28;20778;-54
2021/03/22 09:14:04;;;;;;;5.28;2.20;;;;;;;;;;5072464;28;20786;-57
2021/03/22 09:16:31;;;;;;;6.57;2.13;;;;;;;;;;5072257;28;20028;-56
2021/03/22 09:19:13;;;;;;;5.47;2.57;;;;;;;;;;5072176;28;20266;-57
2021/03/22 09:21:40;;;;;;;5.20;2.30;;;;;;;;;;5072246;28;20593;-57
2021/03/22 09:24:25;;;;;;;4.53;2.30;;;;;;;;;;5072294;28;20767;-56
2021/03/22 09:26:52;;;;;;;4.95;1.90;;;;;;;;;;5072506;28;20248;-56
2021/03/22 09:29:45;;;;;;;7.77;2.90;;;;;;;;;;5072086;28;20093;-56
2021/03/22 09:32:36;;;;;;;7.27;2.57;;;;;;;;;;5068685;28;20292;-56
2021/03/22 09:35:15;;;;;;;5.70;2.10;;;;;;;;;;5072092;28;20265;-57
2021/03/22 09:37:46;;;;;;;6.60;2.27;;;;;;;;;;5072443;28;20304;-57
2021/03/22 09:40:32;;;;;;;5.43;2.17;;;;;;;;;;5072038;28;20326;-57
2021/03/22 09:43:09;;;;;;;5.40;2.67;;;;;;;;;;5072078;28;20253;-57
2021/03/22 09:46:02;;;;;;;10.13;3.33;;;;;;;;;;5072705;28;20333;-55
2021/03/22 09:48:35;;;;;;;4.70;2.67;;;;;;;;;;5075551;28;20661;-57
2021/03/22 09:51:04;;;;;;;5.80;2.30;;;;;;;;;;5075427;28;20743;-55
2021/03/22 09:53:43;;;;;;;5.10;2.23;;;;;;;;;;5075476;28;20281;-57
2021/03/22 09:56:22;;;;;;;9.23;2.27;;;;;;;;;;5075373;28;20300;-56
2021/03/22 09:58:50;;;;;;;8.00;2.63;;;;;;;;;;5075514;28;20770;-56
2021/03/22 10:01:16;;;;;;;8.00;2.50;;;;;;;;;;5075435;28;20279;-56
2021/03/22 10:03:47;;;;;;;4.97;2.57;;;;;;;;;;5075273;28;20250;-56
2021/03/22 10:06:42;;;;;;;5.83;3.10;;;;;;;;;;5075373;28;20325;-56
2021/03/22 10:09:13;;;;;;;6.93;3.30;;;;;;;;;;5075260;28;20352;-56
2021/03/22 10:11:42;;;;;;;9.83;2.70;;;;;;;;;;5075249;28;20250;-56
2021/03/22 10:14:16;;;;;;;6.97;2.27;;;;;;;;;;5075253;28;20276;-57
2021/03/22 10:16:43;;;;;;;4.53;2.03;;;;;;;;;;5075183;28;20249;-56
2021/03/22 10:19:21;;;;;;;7.20;3.57;;;;;;;;;;5074963;28;20254;-56
2021/03/22 10:21:48;;;;;;;8.37;2.30;;;;;;;;;;5075079;28;20257;-56
2021/03/22 10:24:21;;;;;;;5.97;2.63;;;;;;;;;;5074890;28;20347;-56
2021/03/22 10:26:49;;;;;;;4.13;2.60;;;;;;;;;;5074993;28;20279;-56
2021/03/22 10:29:36;;;;;;;4.53;2.30;;;;;;;;;;5074804;28;20342;-56
2021/03/22 10:32:12;;;;;;;5.93;2.07;;;;;;;;;;5074640;28;20280;-56
2021/03/22 10:34:50;;;;;;;8.10;2.67;;;;;;;;;;5074678;28;20762;-56
2021/03/22 10:37:22;;;;;;;9.77;2.93;;;;;;;;;;5074956;28;20288;-57
2021/03/22 10:39:49;;;;;;;4.90;2.70;;;;;;;;;;5074594;28;20261;-56
2021/03/22 10:42:24;;;;;;;7.37;2.43;;;;;;;;;;5074583;28;20873;-56
2021/03/22 10:44:51;;;;;;;6.38;2.67;;;;;;;;;;5074649;28;20258;-56
2021/03/22 10:47:19;;;;;;;6.70;2.67;;;;;;;;;;5074507;28;20107;-56
2021/03/22 10:49:47;;;;;;;6.73;3.37;;;;;;;;;;5074412;28;20253;-56
2021/03/22 10:52:21;;;;;;;4.57;2.40;;;;;;;;;;5074654;28;20281;-56
2021/03/22 10:54:49;;;;;;;6.75;2.65;;;;;;;;;;5074507;28;20249;-56
2021/03/22 10:57:20;;;;;;;5.30;2.23;;;;;;;;;;5074198;28;20116;-56
2021/03/22 10:59:49;;;;;;;6.40;2.10;;;;;;;;;;5074142;28;20250;-56
2021/03/22 11:02:31;;;;;;;5.47;2.50;;;;;;;;;;5074144;28;20332;-56
2021/03/22 11:04:58;;;;;;;4.20;2.30;;;;;;;;;;5074118;28;20742;-56
2021/03/22 11:07:26;;;;;;;4.67;2.27;;;;;;;;;;5073957;28;20258;-56
2021/03/22 11:09:53;;;;;;;3.83;2.07;;;;;;;;;;5073909;28;20273;-56
2021/03/22 11:12:20;;;;;;;4.23;2.20;;;;;;;;;;5073862;28;20281;-56
2021/03/22 11:14:47;;;;;;;4.10;2.90;;;;;;;;;;5073920;28;20272;-56
2021/03/22 11:17:19;;;;;;;5.93;2.87;;;;;;;;;;5073852;28;20284;-56
2021/03/22 11:19:48;;;;;;;5.67;2.10;;;;;;;;;;5073790;28;20268;-56
2021/03/22 11:22:17;;;;;;;4.03;2.10;;;;;;;;;;5074113;28;20245;-56
2021/03/22 11:24:45;;;;;;;4.83;2.53;;;;;;;;;;5073792;28;20281;-56
2021/03/22 11:27:13;;;;;;;5.37;2.43;;;;;;;;;;5073759;28;20329;-56
2021/03/22 11:29:48;;;;;;;5.50;2.40;;;;;;;;;;5055628;28;20819;-56
2021/03/22 11:32:19;;;;;;;4.63;2.13;;;;;;;;;;5073523;28;20285;-56
2021/03/22 11:34:47;;;;;;;7.47;2.20;;;;;;;;;;5073523;28;20041;-56
2021/03/22 11:37:17;;;;;;;6.97;2.23;;;;;;;;;;5073681;28;20755;-56
2021/03/22 11:39:44;;;;;;;10.23;2.40;;;;;;;;;;5073348;28;20260;-56
2021/03/22 11:42:19;;;;;;;3.30;1.70;;;;;;;;;;5073802;28;20311;-55
2021/03/22 11:44:46;;;;;;;8.70;2.60;;;;;;;;;;5073474;28;20723;-56
2021/03/22 11:47:16;;;;;;;4.27;2.13;;;;;;;;;;5073340;28;20077;-55
2021/03/22 11:49:46;;;;;;;3.93;2.37;;;;;;;;;;5073223;28;20253;-55
2021/03/22 11:52:30;;;;;;;5.03;2.10;;;;;;;;;;5073171;28;20303;-55
2021/03/22 11:55:03;;;;;;;5.57;2.03;;;;;;;;;;5073204;28;20689;-56
2021/03/22 11:57:30;;;;;;;5.33;2.20;;;;;;;;;;5055340;28;20956;-56
2021/03/22 12:00:01;;;;;;;5.87;2.40;;;;;;;;;;5073040;28;20604;-56
2021/03/22 12:02:30;;;;;;;6.83;3.10;;;;;;;;;;5073072;28;20653;-55
2021/03/22 12:05:02;;;;;;;7.77;2.70;;;;;;;;;;5073311;28;20311;-56
2021/03/22 12:07:44;;;;;;;6.67;2.27;;;;;;;;;;5073095;28;20611;-55
2021/03/22 12:10:19;;;;;;;9.60;3.00;;;;;;;;;;5072399;28;20608;-55
2021/03/22 12:12:46;;;;;;;6.88;3.03;;;;;;;;;;5054984;28;20629;-55
2021/03/22 12:15:12;;;;;;;5.97;2.60;;;;;;;;;;5073008;28;20127;-56
2021/03/22 12:17:40;;;;;;;5.00;2.30;;;;;;;;;;5072932;28;20314;-55
2021/03/22 12:20:08;;;;;;;4.70;3.00;;;;;;;;;;5072844;28;20284;-56
2021/03/22 12:22:35;;;;;;;8.27;2.93;;;;;;;;;;5072961;28;20253;-56
2021/03/22 12:25:02;;;;;;;5.00;2.80;;;;;;;;;;5072904;28;20260;-56
2021/03/22 12:27:28;;;;;;;6.23;3.03;;;;;;;;;;5072852;28;20523;-56
2021/03/22 12:29:55;;;;;;;5.13;2.40;;;;;;;;;;5072716;28;20650;-55
2021/03/22 12:32:24;;;;;;;10.30;3.07;;;;;;;;;;5072736;28;20280;-55
2021/03/22 12:34:51;;;;;;;4.40;2.30;;;;;;;;;;5072646;28;20254;-55
2021/03/22 12:37:23;;;;;;;16.10;3.87;;;;;;;;;;5073133;28;20278;-56
2021/03/22 12:39:50;;;;;;;10.00;3.77;;;;;;;;;;5072639;28;20615;-55
2021/03/22 12:42:18;;;;;;;9.57;4.07;;;;;;;;;;5072599;28;20253;-55
2021/03/22 12:44:45;;;;;;;8.97;3.37;;;;;;;;;;5072547;28;20775;-55
2021/03/22 12:47:20;;;;;;;6.83;3.10;;;;;;;;;;5072703;28;20303;-55
2021/03/22 12:49:47;;;;;;;10.35;4.45;;;;;;;;;;5072552;28;20748;-55
2021/03/22 12:52:13;;;;;;;9.27;3.80;;;;;;;;;;5072447;28;20120;-55
2021/03/22 12:54:40;;;;;;;8.80;3.57;;;;;;;;;;5072656;28;20336;-55
2021/03/22 12:57:08;;;;;;;11.07;4.00;;;;;;;;;;5072604;28;20256;-55
2021/03/22 12:59:36;;;;;;;9.17;3.10;;;;;;;;;;5072531;28;20246;-55
2021/03/22 13:02:04;;;;;;;7.30;3.17;;;;;;;;;;5072424;28;20254;-55
2021/03/22 13:04:31;;;;;;;10.47;3.80;;;;;;;;;;5072411;28;20281;-55
2021/03/22 13:06:58;;;;;;;6.47;3.27;;;;;;;;;;5072421;28;20308;-55
2021/03/22 13:09:25;;;;;;;7.20;3.30;;;;;;;;;;5072253;28;20258;-55
2021/03/22 13:11:51;;;;;;;9.53;3.50;;;;;;;;;;5072567;28;20673;-55
2021/03/22 13:14:19;;;;;;;7.37;3.53;;;;;;;;;;5072247;28;20258;-55
2021/03/22 13:16:46;;;;;;;12.57;4.27;;;;;;;;;;5072371;28;20711;-55
2021/03/22 13:19:14;;;;;;;10.37;4.27;;;;;;;;;;5072226;28;20318;-55
2021/03/22 13:21:41;;;;;;;15.30;5.27;;;;;;;;;;5074439;28;20257;-55
2021/03/22 13:24:09;;;;;;;13.53;4.80;;;;;;;;;;5076131;28;20261;-55
2021/03/22 13:26:36;;;;;;;12.53;6.00;;;;;;;;;;5075926;28;20249;-55
2021/03/22 13:29:03;;;;;;;11.90;4.13;;;;;;;;;;5075971;28;20281;-56
2021/03/22 13:31:33;;;;;;;7.23;3.47;;;;;;;;;;5075755;28;20332;-56
2021/03/22 13:34:00;;;;;;;17.40;4.17;;;;;;;;;;5075784;28;20794;-55
2021/03/22 13:36:27;;;;;;;14.27;4.83;;;;;;;;;;5074768;28;20589;-56
2021/03/22 13:38:54;;;;;;;12.00;4.43;;;;;;;;;;5048224;28;20290;-56
2021/03/22 13:41:23;;;;;;;18.47;5.17;;;;;;;;;;5055819;28;20264;-56
2021/03/22 13:43:50;;;;;;;14.43;4.30;;;;;;;;;;5055710;28;20258;-56
2021/03/22 13:46:17;;;;;;;9.00;3.70;;;;;;;;;;5055604;28;20775;-56
2021/03/22 13:48:44;;;;;;;9.23;3.33;;;;;;;;;;5055658;28;20319;-56
2021/03/22 13:51:14;;;;;;;8.63;4.10;;;;;;;;;;5075523;28;20249;-56
2021/03/22 13:53:41;;;;;;;7.43;3.90;;;;;;;;;;5075442;28;20854;-56
2021/03/22 13:56:08;;;;;;;10.10;4.03;;;;;;;;;;5075612;28;20292;-56
2021/03/22 13:58:34;;;;;;;6.97;3.00;;;;;;;;;;5075331;28;20257;-56
2021/03/22 14:01:01;;;;;;;12.33;3.97;;;;;;;;;;5075386;28;20146;-56
2021/03/22 14:03:28;;;;;;;11.17;3.80;;;;;;;;;;5075307;28;20028;-56
2021/03/22 14:05:56;;;;;;;9.87;3.40;;;;;;;;;;5075342;28;20379;-56
2021/03/22 14:08:23;;;;;;;11.27;4.13;;;;;;;;;;5075282;28;20046;-56
2021/03/22 14:10:50;;;;;;;9.50;4.00;;;;;;;;;;5075219;28;20035;-56
2021/03/22 14:13:16;;;;;;;10.23;3.93;;;;;;;;;;5075141;28;20040;-56
2021/03/22 14:15:45;;;;;;;10.33;3.97;;;;;;;;;;5075137;28;20075;-56
2021/03/22 14:18:16;;;;;;;10.30;3.63;;;;;;;;;;5075021;28;20032;-56
2021/03/22 14:20:43;;;;;;;13.43;5.23;;;;;;;;;;5074989;28;20025;-56
2021/03/22 14:23:12;;;;;;;12.27;4.97;;;;;;;;;;5075006;28;20035;-56
2021/03/22 14:25:40;;;;;;;13.30;3.80;;;;;;;;;;5074837;28;20197;-56
2021/03/22 14:28:06;;;;;;;8.33;3.60;;;;;;;;;;5074969;28;20530;-56
2021/03/22 14:30:36;;;;;;;7.53;4.00;;;;;;;;;;5074816;28;20029;-56
2021/03/22 14:33:04;;;;;;;10.33;4.00;;;;;;;;;;5074326;28;20036;-56
2021/03/22 14:35:31;;;;;;;7.23;2.83;;;;;;;;;;5074909;28;20027;-56
2021/03/22 14:37:58;;;;;;;11.40;3.90;;;;;;;;;;5074735;28;20127;-57
2021/03/22 14:40:25;;;;;;;7.87;3.33;;;;;;;;;;5074594;28;20024;-57
2021/03/22 14:42:52;;;;;;;9.17;4.00;;;;;;;;;;5074754;28;20069;-57
2021/03/22 14:45:20;;;;;;;10.03;3.53;;;;;;;;;;5074922;28;20020;-57
2021/03/22 14:47:47;;;;;;;11.40;4.07;;;;;;;;;;5074492;28;20032;-57
2021/03/22 14:50:15;;;;;;;7.43;3.90;;;;;;;;;;5074349;28;20103;-56
2021/03/22 14:52:43;;;;;;;6.80;3.60;;;;;;;;;;5074265;28;20078;-57
2021/03/22 14:55:10;;;;;;;8.17;3.50;;;;;;;;;;5074297;28;20024;-57
2021/03/22 14:57:36;;;;;;;7.67;3.40;;;;;;;;;;5074381;28;20032;-57
2021/03/22 15:00:05;;;;;;;7.07;3.67;;;;;;;;;;5074284;28;20585;-57
2021/03/22 15:02:32;;;;;;;12.37;3.77;;;;;;;;;;5074139;28;20029;-57